Map

Track Data

SID SEASON NUMBER BASIN SUBBASIN NAME ISO_TIME NATURE LAT LON WMO_WIND WMO_PRES WMO_AGENCY TRACK_TYPE DIST2LAND LANDFALL IFLAG USA_AGENCY USA_ATCF_ID USA_LAT USA_LON USA_RECORD USA_STATUS USA_WIND USA_PRES USA_SSHS USA_R34_NE USA_R34_SE USA_R34_SW USA_R34_NW USA_R50_NE USA_R50_SE USA_R50_SW USA_R50_NW USA_R64_NE USA_R64_SE USA_R64_SW USA_R64_NW USA_POCI USA_ROCI USA_RMW USA_EYE TOKYO_LAT TOKYO_LON TOKYO_GRADE TOKYO_WIND TOKYO_PRES TOKYO_R50_DIR TOKYO_R50_LONG TOKYO_R50_SHORT TOKYO_R30_DIR TOKYO_R30_LONG TOKYO_R30_SHORT TOKYO_LAND CMA_LAT CMA_LON CMA_CAT CMA_WIND CMA_PRES HKO_LAT HKO_LON HKO_CAT HKO_WIND HKO_PRES NEWDELHI_LAT NEWDELHI_LON NEWDELHI_GRADE NEWDELHI_WIND NEWDELHI_PRES NEWDELHI_CI NEWDELHI_DP NEWDELHI_POCI REUNION_LAT REUNION_LON REUNION_TYPE REUNION_WIND REUNION_PRES REUNION_TNUM REUNION_CI REUNION_RMW REUNION_R34_NE REUNION_R34_SE REUNION_R34_SW REUNION_R34_NW REUNION_R50_NE REUNION_R50_SE REUNION_R50_SW REUNION_R50_NW REUNION_R64_NE REUNION_R64_SE REUNION_R64_SW REUNION_R64_NW BOM_LAT BOM_LON BOM_TYPE BOM_WIND BOM_PRES BOM_TNUM BOM_CI BOM_RMW BOM_R34_NE BOM_R34_SE BOM_R34_SW BOM_R34_NW BOM_R50_NE BOM_R50_SE BOM_R50_SW BOM_R50_NW BOM_R64_NE BOM_R64_SE BOM_R64_SW BOM_R64_NW BOM_ROCI BOM_POCI BOM_EYE BOM_POS_METHOD BOM_PRES_METHOD NADI_LAT NADI_LON NADI_CAT NADI_WIND NADI_PRES WELLINGTON_LAT WELLINGTON_LON WELLINGTON_WIND WELLINGTON_PRES DS824_LAT DS824_LON DS824_STAGE DS824_WIND DS824_PRES TD9636_LAT TD9636_LON TD9636_STAGE TD9636_WIND TD9636_PRES TD9635_LAT TD9635_LON TD9635_WIND TD9635_PRES TD9635_ROCI NEUMANN_LAT NEUMANN_LON NEUMANN_CLASS NEUMANN_WIND NEUMANN_PRES MLC_LAT MLC_LON MLC_CLASS MLC_WIND MLC_PRES USA_GUST BOM_GUST BOM_GUST_PER REUNION_GUST REUNION_GUST_PER USA_SEAHGT USA_SEARAD_NE USA_SEARAD_SE USA_SEARAD_SW USA_SEARAD_NW STORM_SPEED STORM_DIR
1927238N12146 1927 43 WP MM NOT_NAMED 1927-08-25 22:00:00 NR 12.2000 146.300 main 1602 1602 __________O___ -1 12.2000 146.300 2 16 305
1927238N12146 1927 43 WP MM NOT_NAMED 1927-08-26 00:00:00 NR 12.5131 145.849 main 1638 1638 __________P___ -1 12.5131 145.849 2 16 305
1927238N12146 1927 43 WP MM NOT_NAMED 1927-08-26 03:00:00 NR 12.9773 145.178 main 1698 1699 __________P___ -1 12.9773 145.178 2 16 305
1927238N12146 1927 43 WP MM NOT_NAMED 1927-08-26 06:00:00 NR 13.4288 144.524 main 1751 1763 __________P___ -1 13.4288 144.524 2 15 305
1927238N12146 1927 43 WP MM NOT_NAMED 1927-08-26 09:00:00 NR 13.8612 143.900 main 1817 1817 __________P___ -1 13.8612 143.900 2 15 306
1927238N12146 1927 43 WP MM NOT_NAMED 1927-08-26 10:00:00 NR 14.0000 143.700 main 1831 1831 __________O___ -1 14.0000 143.700 2 14 306
1927238N12146 1927 43 WP MM NOT_NAMED 1927-08-26 12:00:00 NR 14.2689 143.314 main 1867 1864 __________P___ -1 14.2689 143.314 2 14 306
1927238N12146 1927 43 WP MM NOT_NAMED 1927-08-26 15:00:00 NR 14.6539 142.756 main 1889 1832 __________P___ -1 14.6539 142.756 2 13 305
1927238N12146 1927 43 WP MM NOT_NAMED 1927-08-26 18:00:00 NR 15.0227 142.196 main 1832 1775 __________P___ -1 15.0227 142.196 2 13 303
1927238N12146 1927 43 WP MM NOT_NAMED 1927-08-26 21:00:00 NR 15.3815 141.608 main 1775 1756 __________P___ -1 15.3815 141.608 2 14 302
1927238N12146 1927 43 WP MM NOT_NAMED 1927-08-26 22:00:00 NR 15.5000 141.400 main 1756 1707 __________O___ -1 15.5000 141.400 7 15 300
1927238N12146 1927 43 WP MM NOT_NAMED 1927-08-27 00:00:00 NR 15.7444 140.946 main 1707 1644 __________P___ -1 15.7444 140.946 7 15 298
1927238N12146 1927 43 WP MM NOT_NAMED 1927-08-27 03:00:00 NR 16.1047 140.226 main 1644 1580 __________P___ -1 16.1047 140.226 7 16 297
1927238N12146 1927 43 WP MM NOT_NAMED 1927-08-27 06:00:00 NR 16.4547 139.483 main 1583 1511 __________P___ -1 16.4547 139.483 7 16 296
1927238N12146 1927 43 WP MM NOT_NAMED 1927-08-27 09:00:00 NR 16.7912 138.742 main 1511 1494 __________P___ -1 16.7912 138.742 7 16 295
1927238N12146 1927 43 WP MM NOT_NAMED 1927-08-27 10:00:00 NR 16.9000 138.500 main 1494 1452 __________O___ -1 16.9000 138.500 7 15 295
1927238N12146 1927 43 WP MM NOT_NAMED 1927-08-27 12:00:00 NR 17.1135 138.030 main 1452 1395 __________P___ -1 17.1135 138.030 7 15 295
1927238N12146 1927 43 WP MM NOT_NAMED 1927-08-27 15:00:00 NR 17.4217 137.338 main 1395 1351 __________P___ -1 17.4217 137.338 7 14 295
1927238N12146 1927 43 WP MM NOT_NAMED 1927-08-27 18:00:00 NR 17.7181 136.665 main 1351 1300 __________P___ -1 17.7181 136.665 7 14 295
1927238N12146 1927 43 WP MM NOT_NAMED 1927-08-27 21:00:00 NR 18.0056 136.012 main 1300 1287 __________P___ -1 18.0056 136.012 7 14 295
1927238N12146 1927 43 WP MM NOT_NAMED 1927-08-27 22:00:00 NR 18.1000 135.800 main 1287 1262 __________O___ -1 18.1000 135.800 7 13 296
1927238N12146 1927 43 WP MM NOT_NAMED 1927-08-28 00:00:00 NR 18.2934 135.390 main 1262 1227 __________P___ -1 18.2934 135.390 7 13 297
1927238N12146 1927 43 WP MM NOT_NAMED 1927-08-28 03:00:00 NR 18.5779 134.795 main 1227 1180 __________P___ -1 18.5779 134.795 7 13 297
1927238N12146 1927 43 WP MM NOT_NAMED 1927-08-28 06:00:00 NR 18.8531 134.207 main 1185 1140 __________P___ -1 18.8531 134.207 7 12 296
1927238N12146 1927 43 WP MM NOT_NAMED 1927-08-28 09:00:00 NR 19.1158 133.606 main 1140 1127 __________P___ -1 19.1158 133.606 7 13 294
1927238N12146 1927 43 WP MM NOT_NAMED 1927-08-28 10:00:00 NR 19.2000 133.400 main 1127 1097 __________O___ -1 19.2000 133.400 7 13 292
1927238N12146 1927 43 WP MM NOT_NAMED 1927-08-28 12:00:00 NR 19.3637 132.969 main 1103 1055 __________P___ -1 19.3637 132.969 7 13 291
1927238N12146 1927 43 WP MM NOT_NAMED 1927-08-28 15:00:00 NR 19.5969 132.305 main 1055 989 __________P___ -1 19.5969 132.305 7 13 290
1927238N12146 1927 43 WP MM NOT_NAMED 1927-08-28 18:00:00 NR 19.8181 131.623 main 989 920 __________P___ -1 19.8181 131.623 7 14 289
1927238N12146 1927 43 WP MM NOT_NAMED 1927-08-28 21:00:00 NR 20.0306 130.932 main 920 901 __________P___ -1 20.0306 130.932 7 14 288
1927238N12146 1927 43 WP MM NOT_NAMED 1927-08-28 22:00:00 NR 20.1000 130.700 main 901 853 __________O___ -1 20.1000 130.700 7 14 286
1927238N12146 1927 43 WP MM NOT_NAMED 1927-08-29 00:00:00 NR 20.2229 130.235 main 853 787 __________P___ -1 20.2229 130.235 7 14 285
1927238N12146 1927 43 WP MM NOT_NAMED 1927-08-29 03:00:00 NR 20.4009 129.533 main 787 724 __________P___ -1 20.4009 129.533 7 14 286
1927238N12146 1927 43 WP MM NOT_NAMED 1927-08-29 06:00:00 NR 20.5907 128.829 main 724 664 __________P___ -1 20.5907 128.829 7 14 287
1927238N12146 1927 43 WP MM NOT_NAMED 1927-08-29 09:00:00 NR 20.8142 128.131 main 664 649 __________P___ -1 20.8142 128.131 7 14 290
1927238N12146 1927 43 WP MM NOT_NAMED 1927-08-29 10:00:00 NR 20.9000 127.900 main 649 607 __________O___ -1 20.9000 127.900 7 15 289
1927238N12146 1927 43 WP MM NOT_NAMED 1927-08-29 12:00:00 NR 21.0604 127.384 main 613 554 __________P___ -1 21.0604 127.384 7 15 290
1927238N12146 1927 43 WP MM NOT_NAMED 1927-08-29 15:00:00 NR 21.3379 126.616 main 554 488 __________P___ -1 21.3379 126.616 7 15 294
1927238N12146 1927 43 WP MM NOT_NAMED 1927-08-29 18:00:00 NR 21.6838 125.914 main 488 415 __________P___ -1 21.6838 125.914 7 14 304
1927238N12146 1927 43 WP MM NOT_NAMED 1927-08-29 21:00:00 NR 22.1261 125.347 main 415 399 __________P___ -1 22.1261 125.347 7 14 313
1927238N12146 1927 43 WP MM NOT_NAMED 1927-08-29 22:00:00 NR 22.3000 125.200 main 399 361 __________O___ -1 22.3000 125.200 2 15 325
1927238N12146 1927 43 WP MM NOT_NAMED 1927-08-30 00:00:00 NR 22.7395 124.884 main 361 296 __________P___ -1 22.7395 124.884 2 16 333
1927238N12146 1927 43 WP MM NOT_NAMED 1927-08-30 03:00:00 NR 23.4953 124.550 main 296 253 __________P___ -1 23.4953 124.550 2 16 345
1927238N12146 1927 43 WP MM NOT_NAMED 1927-08-30 06:00:00 NR 24.2798 124.449 main 253 252 __________P___ -1 24.2798 124.449 2 15 3
1927238N12146 1927 43 WP MM NOT_NAMED 1927-08-30 09:00:00 NR 24.9945 124.652 main 271 271 __________P___ -1 24.9945 124.652 2 15 19
1927238N12146 1927 43 WP MM NOT_NAMED 1927-08-30 10:00:00 NR 25.2000 124.800 main 282 282 __________O___ -1 25.2000 124.800 2 15 43
1927238N12146 1927 43 WP MM NOT_NAMED 1927-08-30 12:00:00 NR 25.5466 125.224 main 326 338 __________P___ -1 25.5466 125.224 2 17 59
1927238N12146 1927 43 WP MM NOT_NAMED 1927-08-30 15:00:00 NR 25.9263 126.132 main 423 433 __________P___ -1 25.9263 126.132 2 20 71
1927238N12146 1927 43 WP MM NOT_NAMED 1927-08-30 18:00:00 NR 26.1789 127.278 main 547 547 __________P___ -1 26.1789 127.278 2 22 79
1927238N12146 1927 43 WP MM NOT_NAMED 1927-08-30 21:00:00 NR 26.3516 128.560 main 552 542 __________P___ -1 26.3516 128.560 2 23 82
1927238N12146 1927 43 WP MM NOT_NAMED 1927-08-30 22:00:00 NR 26.4000 129.000 main 539 __________O___ -1 26.4000 129.000 7 24 83

Digital Typhoon Data and Search

About IBTrACS Database

This database is a web-friendly format of International Best Track Archive for Climate Stewardship (IBTrACS), a global best track data archive curated by NOAA dating back to 1842.

Updated: 2021-11-26